createdAt,value
2022-09-28T00:13:33.414Z,958.53
2022-09-28T00:28:35.742Z,958.57
2022-09-28T00:43:38.034Z,958.44
2022-09-28T00:58:40.316Z,958.53
2022-09-28T01:13:42.759Z,958.63
2022-09-28T01:28:45.082Z,958.76
2022-09-28T01:43:47.536Z,958.88
2022-09-28T01:58:49.900Z,959.04
2022-09-28T02:13:52.180Z,959.3
2022-09-28T02:28:54.562Z,959.63
2022-09-28T02:43:56.885Z,959.88
2022-09-28T02:58:59.197Z,959.97
2022-09-28T03:14:01.521Z,960.18
2022-09-28T03:29:03.821Z,960.22
2022-09-28T03:44:06.139Z,960.38
2022-09-28T03:59:08.428Z,960.44
2022-09-28T04:14:10.774Z,960.4
2022-09-28T04:29:13.130Z,960.43
2022-09-28T04:44:15.398Z,960.49
2022-09-28T04:59:17.878Z,960.5
2022-09-28T05:14:20.323Z,960.67
2022-09-28T05:29:22.745Z,960.74
2022-09-28T05:44:25.037Z,960.86
2022-09-28T05:59:27.365Z,960.82
2022-09-28T06:14:29.744Z,960.9
2022-09-28T06:29:32.101Z,961
2022-09-28T06:44:34.394Z,961.18
2022-09-28T06:59:36.721Z,961.15
2022-09-28T07:14:46.515Z,961.25
2022-09-28T07:29:49.738Z,961.33
2022-09-28T07:44:52.226Z,961.47
2022-09-28T07:59:54.716Z,961.69
2022-09-28T08:14:57.058Z,961.81
2022-09-28T08:29:59.483Z,961.92
2022-09-28T08:45:01.797Z,961.93
2022-09-28T09:00:07.040Z,962.01
2022-09-28T09:15:11.806Z,962.12
2022-09-28T09:30:16.374Z,962.22
2022-09-28T09:45:20.823Z,962.25
2022-09-28T10:00:23.110Z,962.41
2022-09-28T10:15:25.548Z,962.48
2022-09-28T10:30:27.960Z,962.42
2022-09-28T10:45:30.269Z,962.46
2022-09-28T11:00:32.560Z,962.46
2022-09-28T11:15:35.055Z,962.63
2022-09-28T11:30:37.400Z,962.6
2022-09-28T11:45:39.852Z,962.65
2022-09-28T12:00:42.181Z,962.59
2022-09-28T12:16:12.753Z,962.64
2022-09-28T12:31:25.576Z,962.63
2022-09-28T12:46:27.996Z,962.65
2022-09-28T13:01:30.458Z,962.6
2022-09-28T13:16:32.753Z,962.77
2022-09-28T13:31:37.155Z,962.82
2022-09-28T13:46:42.519Z,962.87
2022-09-28T14:01:44.932Z,962.83
2022-09-28T14:16:47.260Z,962.99
2022-09-28T14:31:49.615Z,963
2022-09-28T14:46:51.971Z,962.91
2022-09-28T15:01:54.307Z,963.01
2022-09-28T15:16:56.669Z,963.01
2022-09-28T15:31:58.991Z,963.14
2022-09-28T15:47:01.295Z,963.2
2022-09-28T16:02:07.613Z,963.38
2022-09-28T16:17:10.616Z,963.2
2022-09-28T16:32:12.995Z,963.58
2022-09-28T16:47:15.311Z,963.88
2022-09-28T17:02:35.348Z,962.74
2022-09-28T17:17:44.823Z,962.57
2022-09-28T17:32:47.158Z,962.43
2022-09-28T17:47:49.616Z,962.1
2022-09-28T18:02:52.007Z,962.01
2022-09-28T18:17:54.380Z,961.9
2022-09-28T18:32:56.740Z,961.61
2022-09-28T18:47:59.218Z,961.2
2022-09-28T19:03:01.646Z,960.91
2022-09-28T19:18:04.100Z,960.66
2022-09-28T19:33:06.396Z,960.43
2022-09-28T19:48:08.665Z,960.2
2022-09-28T20:03:11.033Z,960.1
2022-09-28T20:18:13.298Z,959.9
2022-09-28T20:33:19.165Z,959.67
2022-09-28T20:48:29.881Z,959.51
2022-09-28T21:03:32.219Z,959.49
2022-09-28T21:18:34.706Z,959.44
2022-09-28T21:33:36.919Z,959.39
2022-09-28T21:48:39.113Z,959.37
2022-09-28T22:03:41.422Z,959.34
2022-09-28T22:18:43.620Z,959.17
2022-09-28T22:33:45.877Z,959.16
2022-09-28T22:48:48.087Z,959.33
2022-09-28T23:03:50.403Z,959.29
2022-09-28T23:18:52.640Z,959.16
2022-09-28T23:33:55.211Z,958.79
2022-09-28T23:48:57.408Z,958.75
